No particular awareness of the weather is required.    There are no Weather-warnings


Meteo18 Weather Cam more information Meteo18 Weather Cam


Thunder radar more information blitzortung!


Rain radar more information rain snow radar


Visit our other weather sites:

Template documentation
and downloads

And another site



Weather Underground History page Text

Daily Summary for March 11, 2017 Units:  Metric    English   Both
« Previous Day
Next Day »
Daily Weekly Monthly Yearly Custom
  High: Low: Average:
Temperature: 20.3 °C 3.8 °C 11.1 °C
Dew Point: 7.8 °C 2.0 °C 4.5 °C
Humidity: 91 % 33 % 67 %
Wind Speed: 9.7 km/h 0.0 km/h 1.9 km/h
Wind Gust: 14.5 km/h - -
Wind:- - SSW
Pressure: 1023.6 hPa 1014.8 hPa -
Precipitation: 0.0 mm    
Historical Graphs
 
 
Tabular Data for March 11, 2017
Time Temperature Dew Point Pressure Wind Wind Speed Wind Gust Humidity Rainfall Rate (Hourly)
00:02 8.8 °C 5.7 °C 1023.2 hPa Calm   1.6 km/h 81 % 0.0 mm
00:12 8.1 °C 5.6 °C 1023.6 hPa Calm     84 % 0.0 mm
00:17 8.2 °C 5.7 °C 1023.2 hPa Calm     84 % 0.0 mm
00:22 8.3 °C 5.8 °C 1023.2 hPa Calm     84 % 0.0 mm
00:27 8.6 °C 5.7 °C 1023.2 hPa Calm   1.6 km/h 82 % 0.0 mm
00:32 8.7 °C 5.8 °C 1023.2 hPa NE 1.6 km/h 1.6 km/h 82 % 0.0 mm
00:37 8.6 °C 5.7 °C 1023.2 hPa NE 3.2 km/h 3.2 km/h 82 % 0.0 mm
00:42 8.5 °C 5.6 °C 1023.2 hPa Calm   3.2 km/h 82 % 0.0 mm
00:47 8.4 °C 5.5 °C 1023.2 hPa Calm   3.2 km/h 82 % 0.0 mm
00:52 8.3 °C 5.4 °C 1023.2 hPa Calm   3.2 km/h 82 % 0.0 mm
00:57 8.2 °C 5.5 °C 1023.2 hPa Calm   1.6 km/h 83 % 0.0 mm
01:02 7.9 °C 5.2 °C 1023.2 hPa Calm   1.6 km/h 83 % 0.0 mm
01:12 7.4 °C 5.0 °C 1023.2 hPa NNW 1.6 km/h   85 % 0.0 mm
01:17 7.3 °C 5.1 °C 1023.2 hPa Calm   1.6 km/h 86 % 0.0 mm
01:22 7.3 °C 5.1 °C 1023.2 hPa Calm   1.6 km/h 86 % 0.0 mm
01:27 7.2 °C 5.0 °C 1022.9 hPa NNW 1.6 km/h 1.6 km/h 86 % 0.0 mm
01:32 7.2 °C 4.8 °C 1023.2 hPa NNW 1.6 km/h 3.2 km/h 85 % 0.0 mm
01:37 7.2 °C 4.7 °C 1022.9 hPa NNW 1.6 km/h 3.2 km/h 84 % 0.0 mm
01:42 6.9 °C 4.6 °C 1022.9 hPa NW 1.6 km/h 3.2 km/h 85 % 0.0 mm
01:47 6.7 °C 4.5 °C 1022.9 hPa NW 1.6 km/h 1.6 km/h 86 % 0.0 mm
01:52 6.3 °C 4.6 °C 1022.9 hPa NW 1.6 km/h 3.2 km/h 89 % 0.0 mm
01:57 6.1 °C 4.4 °C 1022.9 hPa Calm   3.2 km/h 89 % 0.0 mm
02:02 5.9 °C 4.4 °C 1022.9 hPa NW 1.6 km/h 3.2 km/h 90 % 0.0 mm
02:07 5.9 °C 4.4 °C 1022.6 hPa Calm   1.6 km/h 90 % 0.0 mm
02:12 6.1 °C 4.4 °C 1022.6 hPa Calm   1.6 km/h 89 % 0.0 mm
02:17 6.2 °C 4.4 °C 1022.6 hPa Calm   1.6 km/h 88 % 0.0 mm
02:22 6.1 °C 4.1 °C 1022.6 hPa NW 1.6 km/h 3.2 km/h 87 % 0.0 mm
02:32 6.0 °C 4.0 °C 1022.2 hPa WNW 1.6 km/h 3.2 km/h 87 % 0.0 mm
02:37 5.6 °C 3.8 °C 1022.2 hPa WNW 1.6 km/h 3.2 km/h 88 % 0.0 mm
02:42 5.3 °C 3.6 °C 1022.2 hPa WNW 1.6 km/h 3.2 km/h 89 % 0.0 mm
02:47 5.3 °C 3.8 °C 1022.2 hPa WNW 1.6 km/h 3.2 km/h 90 % 0.0 mm
02:52 5.3 °C 3.8 °C 1021.9 hPa Calm   1.6 km/h 90 % 0.0 mm
02:57 5.6 °C 4.1 °C 1021.9 hPa North 1.6 km/h 1.6 km/h 90 % 0.0 mm
03:02 5.7 °C 3.9 °C 1021.9 hPa NNE 1.6 km/h 1.6 km/h 88 % 0.0 mm
03:12 5.9 °C 3.9 °C 1021.6 hPa North 1.6 km/h 3.2 km/h 87 % 0.0 mm
03:17 6.2 °C 3.7 °C 1021.6 hPa NNE 1.6 km/h 3.2 km/h 84 % 0.0 mm
03:22 6.1 °C 3.6 °C 1021.6 hPa Calm   3.2 km/h 84 % 0.0 mm
03:32 6.0 °C 3.5 °C 1021.6 hPa North 1.6 km/h 3.2 km/h 84 % 0.0 mm
03:37 5.7 °C 3.4 °C 1021.6 hPa Calm   1.6 km/h 85 % 0.0 mm
03:42 5.6 °C 3.3 °C 1021.6 hPa North 1.6 km/h 1.6 km/h 85 % 0.0 mm
03:47 5.4 °C 3.2 °C 1021.6 hPa NNE 3.2 km/h 3.2 km/h 86 % 0.0 mm
03:52 5.3 °C 3.1 °C 1021.6 hPa NNE 1.6 km/h 3.2 km/h 86 % 0.0 mm
03:57 5.3 °C 3.3 °C 1021.6 hPa NNE 1.6 km/h 3.2 km/h 87 % 0.0 mm
04:02 5.3 °C 3.3 °C 1021.6 hPa Calm   3.2 km/h 87 % 0.0 mm
04:07 5.1 °C 3.1 °C 1021.2 hPa NNE 1.6 km/h 3.2 km/h 87 % 0.0 mm
04:12 5.2 °C 3.5 °C 1021.2 hPa NE 1.6 km/h 3.2 km/h 89 % 0.0 mm
04:17 5.2 °C 3.4 °C 1021.2 hPa Calm   4.8 km/h 88 % 0.0 mm
04:22 5.1 °C 3.4 °C 1021.2 hPa Calm   4.8 km/h 89 % 0.0 mm
04:27 4.9 °C 3.1 °C 1021.2 hPa Calm   3.2 km/h 88 % 0.0 mm
04:32 4.8 °C 3.0 °C 1020.9 hPa NNE 1.6 km/h 4.8 km/h 88 % 0.0 mm
04:37 4.8 °C 3.1 °C 1020.9 hPa North 1.6 km/h 4.8 km/h 89 % 0.0 mm
04:42 4.7 °C 2.9 °C 1020.9 hPa Calm   4.8 km/h 88 % 0.0 mm
04:47 4.4 °C 2.7 °C 1020.9 hPa Calm   3.2 km/h 89 % 0.0 mm
04:52 4.4 °C 2.7 °C 1020.9 hPa NW 3.2 km/h 3.2 km/h 89 % 0.0 mm
05:02 3.9 °C 2.3 °C 1020.9 hPa WNW 1.6 km/h 3.2 km/h 89 % 0.0 mm
05:12 4.5 °C 3.0 °C 1020.9 hPa Calm   3.2 km/h 90 % 0.0 mm
05:17 4.5 °C 2.7 °C 1020.9 hPa Calm   1.6 km/h 88 % 0.0 mm
05:22 4.1 °C 2.5 °C 1020.9 hPa Calm   1.6 km/h 89 % 0.0 mm
05:32 4.0 °C 2.5 °C 1020.5 hPa Calm   1.6 km/h 90 % 0.0 mm
05:37 4.1 °C 2.8 °C 1020.5 hPa Calm   1.6 km/h 91 % 0.0 mm
05:42 4.3 °C 2.8 °C 1020.5 hPa WNW 1.6 km/h 1.6 km/h 90 % 0.0 mm
05:47 4.2 °C 2.7 °C 1020.5 hPa Calm   3.2 km/h 90 % 0.0 mm
05:52 4.2 °C 2.7 °C 1020.5 hPa North 1.6 km/h 3.2 km/h 90 % 0.0 mm
05:57 4.2 °C 2.5 °C 1020.5 hPa North 4.8 km/h 4.8 km/h 89 % 0.0 mm
06:02 3.9 °C 2.3 °C 1020.5 hPa North 4.8 km/h 4.8 km/h 89 % 0.0 mm
06:12 4.1 °C 2.5 °C 1020.5 hPa NNW 4.8 km/h 6.4 km/h 89 % 0.0 mm
06:17 4.2 °C 2.4 °C 1020.5 hPa Calm   6.4 km/h 88 % 0.0 mm
06:22 4.1 °C 2.1 °C 1020.5 hPa NNW 1.6 km/h 4.8 km/h 87 % 0.0 mm
06:32 4.3 °C 2.5 °C 1020.5 hPa North 1.6 km/h 4.8 km/h 88 % 0.0 mm
06:42 4.4 °C 2.3 °C 1020.5 hPa NNW 1.6 km/h 3.2 km/h 86 % 0.0 mm
06:47 4.1 °C 2.1 °C 1020.5 hPa Calm   3.2 km/h 87 % 0.0 mm
06:52 3.8 °C 2.0 °C 1020.5 hPa NW 1.6 km/h 3.2 km/h 88 % 0.0 mm
06:57 3.9 °C 2.3 °C 1020.5 hPa Calm   1.6 km/h 89 % 0.0 mm
07:02 3.9 °C 2.1 °C 1020.5 hPa Calm   1.6 km/h 88 % 0.0 mm
07:07 4.0 °C 2.2 °C 1020.5 hPa Calm   1.6 km/h 88 % 0.0 mm
07:12 4.1 °C 2.1 °C 1020.5 hPa Calm   1.6 km/h 87 % 0.0 mm
07:17 4.3 °C 2.3 °C 1020.5 hPa Calm     87 % 0.0 mm
07:22 4.4 °C 2.3 °C 1020.5 hPa Calm     86 % 0.0 mm
07:27 4.7 °C 2.4 °C 1020.5 hPa Calm     85 % 0.0 mm
07:32 4.9 °C 2.3 °C 1020.5 hPa Calm     83 % 0.0 mm
07:37 5.0 °C 2.4 °C 1020.5 hPa Calm     83 % 0.0 mm
07:42 5.0 °C 2.2 °C 1020.5 hPa Calm     82 % 0.0 mm
07:47 5.2 °C 2.4 °C 1020.5 hPa Calm     82 % 0.0 mm
07:52 5.4 °C 2.2 °C 1020.5 hPa Calm     80 % 0.0 mm
07:57 5.7 °C 2.5 °C 1020.5 hPa Calm     80 % 0.0 mm
08:02 5.8 °C 2.4 °C 1020.5 hPa Calm     79 % 0.0 mm
08:07 5.8 °C 2.4 °C 1020.5 hPa Calm     79 % 0.0 mm
08:12 5.9 °C 2.4 °C 1020.5 hPa Calm     78 % 0.0 mm
08:17 5.7 °C 2.2 °C 1020.2 hPa Calm     78 % 0.0 mm
08:22 5.8 °C 2.4 °C 1020.2 hPa Calm     79 % 0.0 mm
08:27 5.9 °C 2.4 °C 1020.2 hPa Calm     78 % 0.0 mm
08:32 5.8 °C 2.4 °C 1020.2 hPa Calm     79 % 0.0 mm
08:37 5.9 °C 2.7 °C 1020.2 hPa Calm     80 % 0.0 mm
08:42 6.3 °C 3.1 °C 1020.2 hPa Calm     80 % 0.0 mm
08:52 6.9 °C 3.3 °C 1020.2 hPa Calm     78 % 0.0 mm
09:02 7.3 °C 3.2 °C 1020.2 hPa NE 1.6 km/h   75 % 0.0 mm
09:12 7.7 °C 3.5 °C 1020.2 hPa Calm   4.8 km/h 75 % 0.0 mm
09:17 7.9 °C 3.7 °C 1020.2 hPa Calm   3.2 km/h 75 % 0.0 mm
09:22 8.3 °C 3.9 °C 1020.2 hPa Calm   3.2 km/h 74 % 0.0 mm
09:32 8.7 °C 4.3 °C 1020.2 hPa Calm   3.2 km/h 74 % 0.0 mm
09:37 8.9 °C 4.3 °C 1019.9 hPa ESE 3.2 km/h 4.8 km/h 73 % 0.0 mm
09:42 9.2 °C 4.8 °C 1019.9 hPa Calm   4.8 km/h 74 % 0.0 mm
09:47 9.6 °C 4.8 °C 1019.9 hPa SE 3.2 km/h 8.0 km/h 72 % 0.0 mm
09:52 9.6 °C 5.0 °C 1019.9 hPa SSE 1.6 km/h 8.0 km/h 73 % 0.0 mm
09:57 9.6 °C 4.6 °C 1019.9 hPa SE 1.6 km/h 9.7 km/h 71 % 0.0 mm
10:02 9.7 °C 4.9 °C 1019.9 hPa SE 3.2 km/h 9.7 km/h 72 % 0.0 mm
10:07 9.7 °C 4.5 °C 1019.9 hPa ESE 1.6 km/h 8.0 km/h 70 % 0.0 mm
10:12 9.9 °C 5.1 °C 1019.9 hPa Calm   8.0 km/h 72 % 0.0 mm
10:17 10.1 °C 5.3 °C 1019.9 hPa SSE 4.8 km/h 4.8 km/h 72 % 0.0 mm
10:22 10.1 °C 5.5 °C 1019.5 hPa East 3.2 km/h 4.8 km/h 73 % 0.0 mm
10:27 10.2 °C 5.4 °C 1019.5 hPa SE 4.8 km/h 9.7 km/h 72 % 0.0 mm
10:32 10.4 °C 5.6 °C 1019.5 hPa Calm   9.7 km/h 72 % 0.0 mm
10:37 10.7 °C 6.1 °C 1019.5 hPa SE 3.2 km/h 8.0 km/h 73 % 0.0 mm
10:42 10.8 °C 6.0 °C 1019.2 hPa ESE 1.6 km/h 8.0 km/h 72 % 0.0 mm
10:52 11.7 °C 6.4 °C 1019.2 hPa East 4.8 km/h 8.0 km/h 70 % 0.0 mm
10:57 11.8 °C 6.7 °C 1019.2 hPa SE 1.6 km/h 8.0 km/h 71 % 0.0 mm
11:02 12.1 °C 6.6 °C 1019.2 hPa ESE 3.2 km/h 9.7 km/h 69 % 0.0 mm
11:07 12.3 °C 6.6 °C 1019.2 hPa SE 3.2 km/h 9.7 km/h 68 % 0.0 mm
11:12 12.6 °C 6.4 °C 1019.2 hPa SE 3.2 km/h 9.7 km/h 66 % 0.0 mm
11:17 12.6 °C 6.4 °C 1019.2 hPa East 3.2 km/h 8.0 km/h 66 % 0.0 mm
11:22 12.8 °C 6.4 °C 1019.2 hPa ESE 4.8 km/h 6.4 km/h 65 % 0.0 mm
11:27 13.0 °C 7.0 °C 1019.2 hPa SE 4.8 km/h 9.7 km/h 67 % 0.0 mm
11:32 13.3 °C 7.1 °C 1018.8 hPa East 3.2 km/h 11.3 km/h 66 % 0.0 mm
11:37 13.4 °C 6.7 °C 1018.8 hPa SE 4.8 km/h 11.3 km/h 64 % 0.0 mm
11:42 13.8 °C 7.6 °C 1018.8 hPa SE 4.8 km/h 11.3 km/h 66 % 0.0 mm
11:47 14.1 °C 7.4 °C 1018.8 hPa ESE 6.4 km/h 9.7 km/h 64 % 0.0 mm
11:52 14.2 °C 7.3 °C 1018.8 hPa ESE 3.2 km/h 9.7 km/h 63 % 0.0 mm
12:02 14.4 °C 7.0 °C 1018.8 hPa SE 6.4 km/h 12.9 km/h 61 % 0.0 mm
12:07 14.6 °C 6.9 °C 1018.8 hPa SE 8.0 km/h 12.9 km/h 60 % 0.0 mm
12:12 14.6 °C 7.2 °C 1018.8 hPa SE 3.2 km/h 12.9 km/h 61 % 0.0 mm
12:17 14.7 °C 7.3 °C 1018.8 hPa ENE 6.4 km/h 11.3 km/h 61 % 0.0 mm
12:22 14.9 °C 7.0 °C 1018.8 hPa ENE 8.0 km/h 11.3 km/h 59 % 0.0 mm
12:32 15.1 °C 7.6 °C 1018.5 hPa SE 6.4 km/h 12.9 km/h 61 % 0.0 mm
12:37 15.3 °C 7.3 °C 1018.5 hPa SE 3.2 km/h 11.3 km/h 59 % 0.0 mm
12:42 15.5 °C 7.0 °C 1018.5 hPa SE 4.8 km/h 11.3 km/h 57 % 0.0 mm
12:52 15.7 °C 6.9 °C 1018.5 hPa ENE 4.8 km/h 9.7 km/h 56 % 0.0 mm
12:57 15.9 °C 7.4 °C 1018.5 hPa East 1.6 km/h 9.7 km/h 57 % 0.0 mm
13:02 16.2 °C 7.1 °C 1018.5 hPa ESE 4.8 km/h 11.3 km/h 55 % 0.0 mm
13:12 16.2 °C 6.9 °C 1018.5 hPa East 9.7 km/h 11.3 km/h 54 % 0.0 mm
13:17 16.2 °C 5.8 °C 1018.2 hPa SE 4.8 km/h 11.3 km/h 50 % 0.0 mm
13:22 16.6 °C 7.8 °C 1018.2 hPa East 3.2 km/h 11.3 km/h 56 % 0.0 mm
13:27 16.6 °C 6.7 °C 1018.2 hPa ESE 6.4 km/h 9.7 km/h 52 % 0.0 mm
13:32 16.7 °C 6.8 °C 1017.8 hPa SE 4.8 km/h 14.5 km/h 52 % 0.0 mm
13:42 16.9 °C 6.4 °C 1017.8 hPa SSE 3.2 km/h 12.9 km/h 50 % 0.0 mm
13:47 16.9 °C 5.8 °C 1017.8 hPa East 3.2 km/h 11.3 km/h 48 % 0.0 mm
13:52 16.8 °C 6.0 °C 1017.8 hPa SSE 1.6 km/h 11.3 km/h 49 % 0.0 mm
13:57 17.0 °C 6.8 °C 1017.5 hPa ESE 4.8 km/h 9.7 km/h 51 % 0.0 mm
14:02 17.1 °C 6.9 °C 1017.5 hPa ESE 4.8 km/h 11.3 km/h 51 % 0.0 mm
14:12 17.2 °C 5.5 °C 1017.2 hPa SE 8.0 km/h 11.3 km/h 46 % 0.0 mm
14:17 17.3 °C 5.6 °C 1017.2 hPa SE 4.8 km/h 9.7 km/h 46 % 0.0 mm
14:22 17.3 °C 4.6 °C 1017.2 hPa SE 6.4 km/h 9.7 km/h 43 % 0.0 mm
14:27 17.4 °C 4.4 °C 1016.8 hPa ESE 6.4 km/h 11.3 km/h 42 % 0.0 mm
14:32 17.3 °C 4.9 °C 1016.8 hPa ESE 1.6 km/h 11.3 km/h 44 % 0.0 mm
14:42 17.7 °C 6.2 °C 1016.8 hPa ENE 3.2 km/h 9.7 km/h 47 % 0.0 mm
14:47 17.7 °C 5.6 °C 1016.8 hPa SE 8.0 km/h 9.7 km/h 45 % 0.0 mm
14:52 17.9 °C 5.5 °C 1016.8 hPa SE 3.2 km/h 9.7 km/h 44 % 0.0 mm
14:57 17.9 °C 4.5 °C 1016.8 hPa SSE 3.2 km/h 9.7 km/h 41 % 0.0 mm
15:02 18.2 °C 6.1 °C 1016.5 hPa SE 3.2 km/h 9.7 km/h 45 % 0.0 mm
15:07 18.4 °C 6.3 °C 1016.5 hPa South 3.2 km/h 9.7 km/h 45 % 0.0 mm
15:12 18.3 °C 4.1 °C 1016.5 hPa SE 4.8 km/h 9.7 km/h 39 % 0.0 mm
15:17 18.3 °C 5.2 °C 1016.5 hPa ESE 4.8 km/h 8.0 km/h 42 % 0.0 mm
15:22 18.6 °C 4.7 °C 1016.1 hPa SSE 1.6 km/h 8.0 km/h 40 % 0.0 mm
15:32 18.7 °C 4.8 °C 1016.1 hPa East 3.2 km/h 6.4 km/h 40 % 0.0 mm
15:37 18.7 °C 3.3 °C 1016.1 hPa Calm   6.4 km/h 36 % 0.0 mm
15:42 18.9 °C 3.9 °C 1016.1 hPa ESE 1.6 km/h 6.4 km/h 37 % 0.0 mm
15:47 19.1 °C 4.1 °C 1016.1 hPa East 4.8 km/h 4.8 km/h 37 % 0.0 mm
15:52 19.1 °C 5.2 °C 1016.1 hPa Calm   6.4 km/h 40 % 0.0 mm
15:57 19.1 °C 3.7 °C 1016.1 hPa East 3.2 km/h 8.0 km/h 36 % 0.0 mm
16:02 19.2 °C 4.2 °C 1016.1 hPa ENE 4.8 km/h 8.0 km/h 37 % 0.0 mm
16:07 19.3 °C 4.2 °C 1015.8 hPa East 1.6 km/h 8.0 km/h 37 % 0.0 mm
16:12 19.3 °C 3.9 °C 1015.8 hPa ESE 1.6 km/h 6.4 km/h 36 % 0.0 mm
16:17 19.3 °C 3.0 °C 1015.8 hPa East 4.8 km/h 6.4 km/h 34 % 0.0 mm
16:22 19.4 °C 2.7 °C 1015.8 hPa SE 3.2 km/h 6.4 km/h 33 % 0.0 mm
16:27 19.3 °C 2.6 °C 1015.8 hPa Calm   6.4 km/h 33 % 0.0 mm
16:37 19.3 °C 3.0 °C 1015.8 hPa SE 1.6 km/h 8.0 km/h 34 % 0.0 mm
16:42 19.3 °C 3.9 °C 1015.8 hPa SE 4.8 km/h 8.0 km/h 36 % 0.0 mm
16:47 19.2 °C 4.2 °C 1015.8 hPa Calm   6.4 km/h 37 % 0.0 mm
16:52 19.4 °C 3.9 °C 1015.5 hPa Calm   6.4 km/h 36 % 0.0 mm
16:57 19.6 °C 3.7 °C 1015.8 hPa Calm   6.4 km/h 35 % 0.0 mm
17:02 19.7 °C 3.8 °C 1015.5 hPa SSE 1.6 km/h 1.6 km/h 35 % 0.0 mm
17:12 20.3 °C 5.1 °C 1015.5 hPa Calm   3.2 km/h 37 % 0.0 mm
17:17 20.2 °C 5.0 °C 1015.5 hPa Calm   3.2 km/h 37 % 0.0 mm
17:22 19.8 °C 4.7 °C 1015.5 hPa Calm   1.6 km/h 37 % 0.0 mm
17:27 19.7 °C 4.2 °C 1015.5 hPa Calm     36 % 0.0 mm
17:32 19.6 °C 4.1 °C 1015.5 hPa Calm     36 % 0.0 mm
17:42 19.2 °C 4.5 °C 1015.5 hPa Calm     38 % 0.0 mm
17:47 19.2 °C 4.5 °C 1015.5 hPa Calm     38 % 0.0 mm
17:52 19.2 °C 4.9 °C 1015.5 hPa Calm     39 % 0.0 mm
18:02 18.5 °C 4.3 °C 1015.1 hPa Calm     39 % 0.0 mm
18:12 17.5 °C 4.4 °C 1015.5 hPa Calm   1.6 km/h 42 % 0.0 mm
18:17 17.1 °C 4.4 °C 1015.5 hPa West 1.6 km/h 1.6 km/h 43 % 0.0 mm
18:22 17.1 °C 4.1 °C 1015.5 hPa West 1.6 km/h 1.6 km/h 42 % 0.0 mm
18:27 16.9 °C 4.2 °C 1015.5 hPa West 1.6 km/h 1.6 km/h 43 % 0.0 mm
18:32 16.3 °C 5.3 °C 1015.5 hPa WNW 1.6 km/h 1.6 km/h 48 % 0.0 mm
18:42 15.7 °C 5.6 °C 1015.5 hPa WNW 1.6 km/h 3.2 km/h 51 % 0.0 mm
18:47 15.6 °C 6.1 °C 1015.5 hPa WNW 1.6 km/h 3.2 km/h 53 % 0.0 mm
18:52 15.4 °C 5.0 °C 1015.5 hPa WNW 1.6 km/h 3.2 km/h 50 % 0.0 mm
18:57 15.6 °C 4.0 °C 1015.5 hPa WNW 1.6 km/h 3.2 km/h 46 % 0.0 mm
19:02 15.7 °C 3.8 °C 1015.5 hPa NW 1.6 km/h 3.2 km/h 45 % 0.0 mm
19:12 15.2 °C 4.3 °C 1015.5 hPa NNW 1.6 km/h 4.8 km/h 48 % 0.0 mm
19:22 14.9 °C 4.6 °C 1015.5 hPa NNW 1.6 km/h 4.8 km/h 50 % 0.0 mm
19:27 14.8 °C 4.8 °C 1015.5 hPa NNW 1.6 km/h 3.2 km/h 51 % 0.0 mm
19:32 14.7 °C 4.7 °C 1015.5 hPa Calm   3.2 km/h 51 % 0.0 mm
19:37 14.6 °C 4.9 °C 1015.5 hPa WNW 1.6 km/h 3.2 km/h 52 % 0.0 mm
19:42 14.2 °C 4.8 °C 1015.5 hPa WNW 1.6 km/h 3.2 km/h 53 % 0.0 mm
19:47 14.1 °C 4.4 °C 1015.5 hPa NW 1.6 km/h 1.6 km/h 52 % 0.0 mm
19:52 14.1 °C 5.2 °C 1015.5 hPa NNW 1.6 km/h 3.2 km/h 55 % 0.0 mm
19:57 13.9 °C 5.0 °C 1015.5 hPa Calm   4.8 km/h 55 % 0.0 mm
20:02 13.5 °C 4.6 °C 1015.5 hPa NW 1.6 km/h 4.8 km/h 55 % 0.0 mm
20:07 13.7 °C 4.6 °C 1015.5 hPa NW 1.6 km/h 3.2 km/h 54 % 0.0 mm
20:12 13.6 °C 5.2 °C 1015.5 hPa WNW 3.2 km/h 3.2 km/h 57 % 0.0 mm
20:17 12.9 °C 5.3 °C 1015.5 hPa WNW 3.2 km/h 3.2 km/h 60 % 0.0 mm
20:22 12.8 °C 5.5 °C 1015.5 hPa WNW 1.6 km/h 3.2 km/h 61 % 0.0 mm
20:27 12.6 °C 5.5 °C 1015.5 hPa WNW 1.6 km/h 3.2 km/h 62 % 0.0 mm
20:32 12.2 °C 5.4 °C 1015.5 hPa WNW 1.6 km/h 3.2 km/h 63 % 0.0 mm
20:37 11.8 °C 5.7 °C 1015.5 hPa WNW 1.6 km/h 3.2 km/h 66 % 0.0 mm
20:42 11.7 °C 5.6 °C 1015.5 hPa West 1.6 km/h 3.2 km/h 66 % 0.0 mm
20:47 11.7 °C 5.1 °C 1015.5 hPa WNW 3.2 km/h 3.2 km/h 64 % 0.0 mm
20:52 12.1 °C 4.3 °C 1015.5 hPa WNW 1.6 km/h 3.2 km/h 59 % 0.0 mm
20:57 12.3 °C 4.5 °C 1015.5 hPa Calm   3.2 km/h 59 % 0.0 mm
21:02 12.7 °C 4.4 °C 1015.5 hPa Calm   3.2 km/h 57 % 0.0 mm
21:07 12.9 °C 4.3 °C 1015.5 hPa NW 1.6 km/h 3.2 km/h 56 % 0.0 mm
21:12 13.1 °C 4.5 °C 1015.5 hPa NNW 3.2 km/h 3.2 km/h 56 % 0.0 mm
21:17 13.2 °C 4.6 °C 1015.5 hPa NNW 1.6 km/h 4.8 km/h 56 % 0.0 mm
21:27 13.1 °C 4.5 °C 1015.5 hPa NW 1.6 km/h 4.8 km/h 56 % 0.0 mm
21:32 12.9 °C 4.8 °C 1015.5 hPa North 1.6 km/h 3.2 km/h 58 % 0.0 mm
21:42 12.6 °C 4.6 °C 1015.5 hPa Calm   3.2 km/h 58 % 0.0 mm
21:47 12.4 °C 4.6 °C 1015.5 hPa NNW 3.2 km/h 3.2 km/h 59 % 0.0 mm
21:57 12.5 °C 4.5 °C 1015.5 hPa NNW 1.6 km/h 3.2 km/h 58 % 0.0 mm
22:02 12.3 °C 4.3 °C 1015.5 hPa NNW 3.2 km/h 3.2 km/h 58 % 0.0 mm
22:12 12.3 °C 4.0 °C 1015.5 hPa North 1.6 km/h 3.2 km/h 57 % 0.0 mm
22:17 12.3 °C 3.8 °C 1015.1 hPa North 1.6 km/h 3.2 km/h 56 % 0.0 mm
22:22 12.3 °C 4.0 °C 1015.1 hPa Calm   3.2 km/h 57 % 0.0 mm
22:32 12.0 °C 4.0 °C 1015.1 hPa NW 1.6 km/h 3.2 km/h 58 % 0.0 mm
22:37 11.4 °C 3.9 °C 1015.1 hPa WNW 3.2 km/h 3.2 km/h 60 % 0.0 mm
22:42 11.3 °C 3.6 °C 1015.1 hPa WNW 1.6 km/h 3.2 km/h 59 % 0.0 mm
22:47 11.6 °C 3.4 °C 1015.1 hPa WNW 1.6 km/h 3.2 km/h 57 % 0.0 mm
22:52 11.3 °C 4.5 °C 1015.1 hPa WNW 1.6 km/h 3.2 km/h 63 % 0.0 mm
22:57 10.9 °C 4.4 °C 1015.1 hPa WNW 1.6 km/h 1.6 km/h 64 % 0.0 mm
23:02 10.9 °C 4.6 °C 1015.1 hPa WNW 1.6 km/h 3.2 km/h 65 % 0.0 mm
23:07 10.8 °C 4.5 °C 1015.1 hPa Calm   3.2 km/h 65 % 0.0 mm
23:17 11.1 °C 4.3 °C 1015.1 hPa WNW 1.6 km/h 3.2 km/h 63 % 0.0 mm
23:22 10.6 °C 4.7 °C 1015.1 hPa Calm   1.6 km/h 67 % 0.0 mm
23:32 10.2 °C 4.1 °C 1015.1 hPa WNW 3.2 km/h 3.2 km/h 66 % 0.0 mm
23:42 10.2 °C 4.3 °C 1015.1 hPa West 3.2 km/h 3.2 km/h 67 % 0.0 mm
23:47 10.3 °C 4.7 °C 1014.8 hPa WNW 1.6 km/h 3.2 km/h 68 % 0.0 mm
23:52 10.3 °C 4.7 °C 1014.8 hPa WNW 3.2 km/h 3.2 km/h 68 % 0.0 mm
23:57 10.1 °C 4.2 °C 1015.1 hPa North 3.2 km/h 3.2 km/h 67 % 0.0 mm
Meteo18
Compliments of Weather Underground - 4 mb

Script developed by  Jim McMurry - jmcmurry@mwt.net Adapted for the template by  Wim van der Kuil - Leuven-Template.eu

You find our weather info also at:

European Weather Network

Weather Underground

Equipment we use:

Weather-station
Davis Vue

Weather-program
Meteohub

Weather-server
Raspberry PI 2 B+

Provider
1 and 1

Davis Vue

Meteohub

Raspberry PI 2 B+

1 and 1